sensor_id;sensor_type;location;lat;lon;timestamp;pressure;altitude;pressure_sealevel;temperature;humidity
50702;BME280;36670;50.094;8.496;2022-07-29T00:00:43;100180.53;;;23.93;33.69
50702;BME280;36670;50.094;8.496;2022-07-29T00:03:12;100177.47;;;23.98;33.78
50702;BME280;36670;50.094;8.496;2022-07-29T00:05:39;100193.44;;;23.94;33.74
50702;BME280;36670;50.094;8.496;2022-07-29T00:08:06;100193.94;;;23.96;33.80
50702;BME280;36670;50.094;8.496;2022-07-29T00:10:32;100201.84;;;24.02;33.64
50702;BME280;36670;50.094;8.496;2022-07-29T00:12:57;100203.00;;;24.01;33.43
50702;BME280;36670;50.094;8.496;2022-07-29T00:15:25;100210.53;;;24.10;33.70
50702;BME280;36670;50.094;8.496;2022-07-29T00:17:50;100198.78;;;24.08;32.96
50702;BME280;36670;50.094;8.496;2022-07-29T00:20:16;100199.63;;;24.08;33.40
50702;BME280;36670;50.094;8.496;2022-07-29T00:22:42;100194.03;;;24.20;32.81
50702;BME280;36670;50.094;8.496;2022-07-29T00:25:08;100192.31;;;24.07;33.02
50702;BME280;36670;50.094;8.496;2022-07-29T00:27:34;100190.91;;;24.01;33.34
50702;BME280;36670;50.094;8.496;2022-07-29T00:30:00;100189.50;;;24.07;33.39
50702;BME280;36670;50.094;8.496;2022-07-29T00:32:25;100183.50;;;24.09;32.94
50702;BME280;36670;50.094;8.496;2022-07-29T00:34:51;100183.09;;;23.98;33.06
50702;BME280;36670;50.094;8.496;2022-07-29T00:37:35;100175.97;;;24.00;33.31
50702;BME280;36670;50.094;8.496;2022-07-29T00:40:01;100171.63;;;24.03;33.46
50702;BME280;36670;50.094;8.496;2022-07-29T00:42:26;100179.38;;;23.85;33.66
50702;BME280;36670;50.094;8.496;2022-07-29T00:44:52;100171.63;;;23.82;33.60
50702;BME280;36670;50.094;8.496;2022-07-29T00:47:17;100165.72;;;23.75;33.62
50702;BME280;36670;50.094;8.496;2022-07-29T00:49:46;100161.53;;;23.81;33.53
50702;BME280;36670;50.094;8.496;2022-07-29T00:52:12;100145.91;;;23.83;33.53
50702;BME280;36670;50.094;8.496;2022-07-29T00:54:39;100145.66;;;23.76;33.43
50702;BME280;36670;50.094;8.496;2022-07-29T00:57:06;100143.28;;;23.78;33.32
50702;BME280;36670;50.094;8.496;2022-07-29T00:59:32;100143.38;;;23.69;33.98
50702;BME280;36670;50.094;8.496;2022-07-29T01:01:57;100140.38;;;23.75;33.39
50702;BME280;36670;50.094;8.496;2022-07-29T01:04:23;100138.34;;;23.75;34.05
50702;BME280;36670;50.094;8.496;2022-07-29T01:06:52;100144.69;;;23.72;33.65
50702;BME280;36670;50.094;8.496;2022-07-29T01:09:18;100135.97;;;23.65;34.34
50702;BME280;36670;50.094;8.496;2022-07-29T01:11:45;100136.31;;;23.63;34.17
50702;BME280;36670;50.094;8.496;2022-07-29T01:14:12;100138.56;;;23.70;34.37
50702;BME280;36670;50.094;8.496;2022-07-29T01:17:16;100129.03;;;23.62;34.28
50702;BME280;36670;50.094;8.496;2022-07-29T01:22:28;100119.56;;;23.46;34.59
50702;BME280;36670;50.094;8.496;2022-07-29T01:25:10;100116.28;;;23.44;35.03
50702;BME280;36670;50.094;8.496;2022-07-29T01:30:12;100114.06;;;23.28;36.09
50702;BME280;36670;50.094;8.496;2022-07-29T01:32:39;100110.50;;;23.19;36.01
50702;BME280;36670;50.094;8.496;2022-07-29T01:35:11;100116.31;;;23.14;36.83
50702;BME280;36670;50.094;8.496;2022-07-29T01:40:29;100106.09;;;23.00;37.94
50702;BME280;36670;50.094;8.496;2022-07-29T01:42:58;100104.81;;;22.98;38.13
50702;BME280;36670;50.094;8.496;2022-07-29T01:45:30;100109.28;;;22.99;37.93
50702;BME280;36670;50.094;8.496;2022-07-29T01:48:06;100107.16;;;22.96;38.08
50702;BME280;36670;50.094;8.496;2022-07-29T01:50:52;100119.47;;;22.82;38.70
50702;BME280;36670;50.094;8.496;2022-07-29T01:53:25;100121.75;;;22.89;38.78
50702;BME280;36670;50.094;8.496;2022-07-29T01:55:52;100117.56;;;22.74;38.71
50702;BME280;36670;50.094;8.496;2022-07-29T01:58:19;100116.34;;;22.84;39.00
50702;BME280;36670;50.094;8.496;2022-07-29T02:00:46;100112.75;;;22.75;39.34
50702;BME280;36670;50.094;8.496;2022-07-29T02:03:14;100115.84;;;22.82;38.86
50702;BME280;36670;50.094;8.496;2022-07-29T02:05:43;100107.84;;;22.93;38.05
50702;BME280;36670;50.094;8.496;2022-07-29T02:08:11;100099.09;;;22.86;37.77
50702;BME280;36670;50.094;8.496;2022-07-29T02:10:38;100104.59;;;22.82;37.68
50702;BME280;36670;50.094;8.496;2022-07-29T02:13:05;100102.47;;;22.79;38.11
50702;BME280;36670;50.094;8.496;2022-07-29T02:15:32;100098.81;;;22.78;38.04
50702;BME280;36670;50.094;8.496;2022-07-29T02:18:06;100092.28;;;22.87;38.47
50702;BME280;36670;50.094;8.496;2022-07-29T02:20:33;100099.69;;;22.70;38.93
50702;BME280;36670;50.094;8.496;2022-07-29T02:23:00;100100.56;;;22.62;39.15
50702;BME280;36670;50.094;8.496;2022-07-29T02:25:27;100102.41;;;22.58;39.10
50702;BME280;36670;50.094;8.496;2022-07-29T02:27:53;100100.56;;;22.62;39.35
50702;BME280;36670;50.094;8.496;2022-07-29T02:30:20;100102.88;;;22.60;39.16
50702;BME280;36670;50.094;8.496;2022-07-29T02:32:47;100101.44;;;22.54;39.63
50702;BME280;36670;50.094;8.496;2022-07-29T02:35:14;100111.09;;;22.44;40.94
50702;BME280;36670;50.094;8.496;2022-07-29T02:37:43;100106.16;;;22.23;42.03
50702;BME280;36670;50.094;8.496;2022-07-29T02:40:11;100105.22;;;22.10;42.97
50702;BME280;36670;50.094;8.496;2022-07-29T02:42:41;100103.94;;;21.90;42.91
50702;BME280;36670;50.094;8.496;2022-07-29T02:45:08;100096.88;;;21.67;44.66
50702;BME280;36670;50.094;8.496;2022-07-29T02:47:42;100095.09;;;21.53;46.07
50702;BME280;36670;50.094;8.496;2022-07-29T02:50:11;100099.19;;;21.38;46.14
50702;BME280;36670;50.094;8.496;2022-07-29T02:52:45;100097.53;;;21.37;45.91
50702;BME280;36670;50.094;8.496;2022-07-29T02:55:25;100099.19;;;21.12;47.01
50702;BME280;36670;50.094;8.496;2022-07-29T02:57:58;100100.03;;;21.21;46.83
50702;BME280;36670;50.094;8.496;2022-07-29T03:00:28;100096.03;;;21.13;48.28
50702;BME280;36670;50.094;8.496;2022-07-29T03:02:58;100107.59;;;21.12;47.06
50702;BME280;36670;50.094;8.496;2022-07-29T03:05:24;100098.69;;;21.10;47.71
50702;BME280;36670;50.094;8.496;2022-07-29T03:07:53;100104.31;;;21.10;48.04
50702;BME280;36670;50.094;8.496;2022-07-29T03:10:21;100108.75;;;21.11;47.86
50702;BME280;36670;50.094;8.496;2022-07-29T03:12:47;100102.13;;;21.07;48.25
50702;BME280;36670;50.094;8.496;2022-07-29T03:15:13;100097.19;;;20.95;49.05
50702;BME280;36670;50.094;8.496;2022-07-29T03:17:40;100105.94;;;21.02;49.58
50702;BME280;36670;50.094;8.496;2022-07-29T03:20:09;100094.38;;;21.04;49.77
50702;BME280;36670;50.094;8.496;2022-07-29T03:22:40;100098.31;;;21.03;49.96
50702;BME280;36670;50.094;8.496;2022-07-29T03:25:11;100094.50;;;20.81;50.34
50702;BME280;36670;50.094;8.496;2022-07-29T03:27:36;100093.31;;;20.73;51.28
50702;BME280;36670;50.094;8.496;2022-07-29T03:30:03;100088.91;;;20.81;50.70
50702;BME280;36670;50.094;8.496;2022-07-29T03:32:28;100088.56;;;20.74;51.59
50702;BME280;36670;50.094;8.496;2022-07-29T03:34:54;100084.09;;;20.73;52.47
50702;BME280;36670;50.094;8.496;2022-07-29T03:37:19;100084.88;;;20.64;52.18
50702;BME280;36670;50.094;8.496;2022-07-29T03:39:45;100082.38;;;20.63;51.72
50702;BME280;36670;50.094;8.496;2022-07-29T03:42:14;100081.84;;;20.52;52.82
50702;BME280;36670;50.094;8.496;2022-07-29T03:44:42;100086.13;;;20.41;53.13
50702;BME280;36670;50.094;8.496;2022-07-29T03:47:09;100087.59;;;20.38;53.54
50702;BME280;36670;50.094;8.496;2022-07-29T03:49:36;100081.00;;;20.43;53.53
50702;BME280;36670;50.094;8.496;2022-07-29T03:52:03;100088.59;;;20.42;53.43
50702;BME280;36670;50.094;8.496;2022-07-29T03:54:29;100080.16;;;20.34;53.85
50702;BME280;36670;50.094;8.496;2022-07-29T03:56:57;100087.22;;;20.31;54.76
50702;BME280;36670;50.094;8.496;2022-07-29T03:59:24;100086.22;;;20.27;54.81
50702;BME280;36670;50.094;8.496;2022-07-29T04:01:51;100087.88;;;20.28;55.18
50702;BME280;36670;50.094;8.496;2022-07-29T04:04:17;100087.88;;;20.28;54.96
50702;BME280;36670;50.094;8.496;2022-07-29T04:06:44;100089.16;;;20.22;56.07
50702;BME280;36670;50.094;8.496;2022-07-29T04:09:11;100091.28;;;20.16;56.35
50702;BME280;36670;50.094;8.496;2022-07-29T04:11:41;100087.16;;;20.13;56.67
50702;BME280;36670;50.094;8.496;2022-07-29T04:14:06;100091.56;;;20.06;56.97
50702;BME280;36670;50.094;8.496;2022-07-29T04:16:32;100094.31;;;19.97;57.19
50702;BME280;36670;50.094;8.496;2022-07-29T04:18:57;100096.28;;;19.97;57.44
50702;BME280;36670;50.094;8.496;2022-07-29T04:21:23;100099.53;;;19.90;57.71
50702;BME280;36670;50.094;8.496;2022-07-29T04:23:49;100094.47;;;19.92;58.86
50702;BME280;36670;50.094;8.496;2022-07-29T04:26:17;100104.00;;;19.91;58.51
50702;BME280;36670;50.094;8.496;2022-07-29T04:28:43;100097.06;;;19.88;58.08
50702;BME280;36670;50.094;8.496;2022-07-29T04:31:10;100103.31;;;19.85;58.67
50702;BME280;36670;50.094;8.496;2022-07-29T04:33:35;100110.59;;;19.86;57.70
50702;BME280;36670;50.094;8.496;2022-07-29T04:36:01;100112.63;;;19.94;57.61
50702;BME280;36670;50.094;8.496;2022-07-29T04:38:26;100104.38;;;19.98;57.39
50702;BME280;36670;50.094;8.496;2022-07-29T04:40:52;100106.16;;;19.94;57.75
50702;BME280;36670;50.094;8.496;2022-07-29T04:43:20;100109.13;;;19.89;57.94
50702;BME280;36670;50.094;8.496;2022-07-29T04:45:45;100114.06;;;19.92;57.86
50702;BME280;36670;50.094;8.496;2022-07-29T04:48:11;100110.31;;;19.74;58.26
50702;BME280;36670;50.094;8.496;2022-07-29T04:50:39;100107.91;;;19.81;57.31
50702;BME280;36670;50.094;8.496;2022-07-29T04:53:06;100110.53;;;20.40;56.53
50702;BME280;36670;50.094;8.496;2022-07-29T04:55:31;100102.66;;;21.44;54.22
50702;BME280;36670;50.094;8.496;2022-07-29T04:57:57;100105.31;;;22.31;51.69
50702;BME280;36670;50.094;8.496;2022-07-29T05:00:22;100110.22;;;22.82;49.58
50702;BME280;36670;50.094;8.496;2022-07-29T05:02:50;100096.06;;;23.21;49.01
50702;BME280;36670;50.094;8.496;2022-07-29T05:05:16;100105.94;;;23.48;48.05
50702;BME280;36670;50.094;8.496;2022-07-29T05:07:41;100103.47;;;23.67;47.00
50702;BME280;36670;50.094;8.496;2022-07-29T05:10:07;100109.31;;;23.62;47.44
50702;BME280;36670;50.094;8.496;2022-07-29T05:12:33;100099.03;;;23.79;46.92
50702;BME280;36670;50.094;8.496;2022-07-29T05:14:58;100111.56;;;23.90;46.77
50702;BME280;36670;50.094;8.496;2022-07-29T05:17:24;100112.44;;;24.15;46.47
50702;BME280;36670;50.094;8.496;2022-07-29T05:19:49;100112.50;;;24.52;46.02
50702;BME280;36670;50.094;8.496;2022-07-29T05:22:18;100112.03;;;24.75;45.78
50702;BME280;36670;50.094;8.496;2022-07-29T05:24:44;100118.34;;;25.09;45.44
50702;BME280;36670;50.094;8.496;2022-07-29T05:27:09;100113.78;;;25.58;43.79
50702;BME280;36670;50.094;8.496;2022-07-29T05:29:35;100115.56;;;25.78;43.32
50702;BME280;36670;50.094;8.496;2022-07-29T05:32:00;100114.75;;;26.06;43.02
50702;BME280;36670;50.094;8.496;2022-07-29T05:34:25;100118.38;;;27.02;41.37
50702;BME280;36670;50.094;8.496;2022-07-29T05:36:51;100106.47;;;26.77;40.41
50702;BME280;36670;50.094;8.496;2022-07-29T05:39:16;100117.84;;;27.32;39.75
50702;BME280;36670;50.094;8.496;2022-07-29T05:41:41;100113.22;;;26.88;39.73
50702;BME280;36670;50.094;8.496;2022-07-29T05:44:07;100110.66;;;26.83;39.38
50702;BME280;36670;50.094;8.496;2022-07-29T05:46:32;100105.63;;;26.92;39.19
50702;BME280;36670;50.094;8.496;2022-07-29T05:48:58;100108.88;;;26.75;38.80
50702;BME280;36670;50.094;8.496;2022-07-29T05:51:23;100108.50;;;26.77;38.54
50702;BME280;36670;50.094;8.496;2022-07-29T05:53:48;100111.72;;;27.30;38.25
50702;BME280;36670;50.094;8.496;2022-07-29T05:56:14;100102.81;;;27.48;37.60
50702;BME280;36670;50.094;8.496;2022-07-29T05:58:39;100113.78;;;27.49;37.59
50702;BME280;36670;50.094;8.496;2022-07-29T06:01:04;100108.25;;;27.56;37.16
50702;BME280;36670;50.094;8.496;2022-07-29T06:03:30;100108.88;;;27.66;36.24
50702;BME280;36670;50.094;8.496;2022-07-29T06:05:55;100108.91;;;27.89;36.62
50702;BME280;36670;50.094;8.496;2022-07-29T06:08:21;100118.84;;;28.65;35.07
50702;BME280;36670;50.094;8.496;2022-07-29T06:10:46;100113.13;;;28.41;34.32
50702;BME280;36670;50.094;8.496;2022-07-29T06:13:12;100113.72;;;29.01;32.88
50702;BME280;36670;50.094;8.496;2022-07-29T06:15:38;100108.84;;;28.51;33.36
50702;BME280;36670;50.094;8.496;2022-07-29T06:18:04;100112.13;;;27.87;33.83
50702;BME280;36670;50.094;8.496;2022-07-29T06:20:32;100114.13;;;28.06;33.88
50702;BME280;36670;50.094;8.496;2022-07-29T06:22:58;100113.69;;;27.85;33.62
50702;BME280;36670;50.094;8.496;2022-07-29T06:25:23;100114.19;;;27.32;33.87
50702;BME280;36670;50.094;8.496;2022-07-29T06:27:49;100118.13;;;27.07;35.10
50702;BME280;36670;50.094;8.496;2022-07-29T06:30:14;100115.97;;;27.20;34.94
50702;BME280;36670;50.094;8.496;2022-07-29T06:32:39;100110.34;;;27.04;34.83
50702;BME280;36670;50.094;8.496;2022-07-29T06:35:05;100109.16;;;27.25;35.42
50702;BME280;36670;50.094;8.496;2022-07-29T06:37:31;100116.19;;;27.12;34.69
50702;BME280;36670;50.094;8.496;2022-07-29T06:39:56;100117.59;;;26.54;36.11
50702;BME280;36670;50.094;8.496;2022-07-29T06:42:43;100116.41;;;26.23;35.62
50702;BME280;36670;50.094;8.496;2022-07-29T06:45:10;100125.91;;;25.58;37.42
50702;BME280;36670;50.094;8.496;2022-07-29T06:47:35;100132.94;;;25.24;37.77
50702;BME280;36670;50.094;8.496;2022-07-29T06:50:01;100131.78;;;25.12;39.02
50702;BME280;36670;50.094;8.496;2022-07-29T06:52:26;100132.09;;;25.23;39.00
50702;BME280;36670;50.094;8.496;2022-07-29T06:54:51;100136.22;;;25.13;38.59
50702;BME280;36670;50.094;8.496;2022-07-29T06:57:16;100131.06;;;25.15;38.67
50702;BME280;36670;50.094;8.496;2022-07-29T06:59:42;100140.28;;;25.00;38.61
50702;BME280;36670;50.094;8.496;2022-07-29T07:02:07;100144.22;;;25.24;38.63
50702;BME280;36670;50.094;8.496;2022-07-29T07:04:32;100138.31;;;25.41;38.58
50702;BME280;36670;50.094;8.496;2022-07-29T07:06:58;100148.59;;;25.09;37.17
50702;BME280;36670;50.094;8.496;2022-07-29T07:09:25;100149.06;;;25.35;37.91
50702;BME280;36670;50.094;8.496;2022-07-29T07:11:50;100138.25;;;25.66;36.75
50702;BME280;36670;50.094;8.496;2022-07-29T07:14:15;100145.34;;;25.60;36.24
50702;BME280;36670;50.094;8.496;2022-07-29T07:16:41;100149.88;;;25.36;36.85
50702;BME280;36670;50.094;8.496;2022-07-29T07:19:06;100142.16;;;25.61;36.74
50702;BME280;36670;50.094;8.496;2022-07-29T07:21:32;100148.63;;;25.62;36.39
50702;BME280;36670;50.094;8.496;2022-07-29T07:23:58;100155.06;;;25.34;36.82
50702;BME280;36670;50.094;8.496;2022-07-29T07:26:24;100151.28;;;25.42;37.10
50702;BME280;36670;50.094;8.496;2022-07-29T07:28:50;100155.84;;;25.87;36.01
50702;BME280;36670;50.094;8.496;2022-07-29T07:31:15;100155.09;;;26.19;36.29
50702;BME280;36670;50.094;8.496;2022-07-29T07:33:40;100145.53;;;26.23;33.43
50702;BME280;36670;50.094;8.496;2022-07-29T07:36:06;100152.44;;;26.10;34.67
50702;BME280;36670;50.094;8.496;2022-07-29T07:38:31;100156.09;;;26.11;34.37
50702;BME280;36670;50.094;8.496;2022-07-29T07:40:56;100149.84;;;26.33;34.35
50702;BME280;36670;50.094;8.496;2022-07-29T07:43:22;100141.69;;;26.64;34.41
50702;BME280;36670;50.094;8.496;2022-07-29T07:45:47;100143.19;;;26.57;33.53
50702;BME280;36670;50.094;8.496;2022-07-29T07:48:12;100157.56;;;26.04;34.32
50702;BME280;36670;50.094;8.496;2022-07-29T07:50:38;100152.19;;;26.15;34.17
50702;BME280;36670;50.094;8.496;2022-07-29T07:53:03;100145.88;;;26.22;34.18
50702;BME280;36670;50.094;8.496;2022-07-29T07:55:29;100154.16;;;26.43;34.05
50702;BME280;36670;50.094;8.496;2022-07-29T07:57:54;100151.94;;;26.52;33.69
50702;BME280;36670;50.094;8.496;2022-07-29T08:00:21;100152.31;;;26.51;34.07
50702;BME280;36670;50.094;8.496;2022-07-29T08:02:46;100150.19;;;26.64;33.67
50702;BME280;36670;50.094;8.496;2022-07-29T08:05:12;100144.06;;;26.30;33.68
50702;BME280;36670;50.094;8.496;2022-07-29T08:07:43;100142.38;;;26.57;34.18
50702;BME280;36670;50.094;8.496;2022-07-29T08:10:09;100151.63;;;27.05;32.67
50702;BME280;36670;50.094;8.496;2022-07-29T08:12:34;100143.97;;;27.06;32.76
50702;BME280;36670;50.094;8.496;2022-07-29T08:14:59;100149.50;;;26.83;33.17
50702;BME280;36670;50.094;8.496;2022-07-29T08:17:25;100143.94;;;26.86;34.30
50702;BME280;36670;50.094;8.496;2022-07-29T08:19:51;100149.13;;;26.84;33.36
50702;BME280;36670;50.094;8.496;2022-07-29T08:22:17;100137.78;;;26.84;33.67
50702;BME280;36670;50.094;8.496;2022-07-29T08:24:42;100141.63;;;26.76;33.25
50702;BME280;36670;50.094;8.496;2022-07-29T08:27:08;100147.03;;;27.17;34.01
50702;BME280;36670;50.094;8.496;2022-07-29T08:29:33;100154.63;;;27.64;34.01
50702;BME280;36670;50.094;8.496;2022-07-29T08:31:59;100130.88;;;27.92;32.64
50702;BME280;36670;50.094;8.496;2022-07-29T08:34:24;100145.75;;;28.28;33.50
50702;BME280;36670;50.094;8.496;2022-07-29T08:36:50;100151.09;;;27.71;31.81
50702;BME280;36670;50.094;8.496;2022-07-29T08:39:15;100144.50;;;27.86;32.27
50702;BME280;36670;50.094;8.496;2022-07-29T08:41:41;100146.16;;;27.68;32.42
50702;BME280;36670;50.094;8.496;2022-07-29T08:44:06;100134.38;;;27.66;32.74
50702;BME280;36670;50.094;8.496;2022-07-29T08:46:31;100134.66;;;27.41;32.40
50702;BME280;36670;50.094;8.496;2022-07-29T08:48:57;100137.28;;;27.69;33.07
50702;BME280;36670;50.094;8.496;2022-07-29T08:51:24;100143.31;;;28.07;33.00
50702;BME280;36670;50.094;8.496;2022-07-29T08:53:50;100138.88;;;28.06;32.04
50702;BME280;36670;50.094;8.496;2022-07-29T08:56:17;100142.66;;;28.14;32.80
50702;BME280;36670;50.094;8.496;2022-07-29T08:58:43;100152.16;;;27.82;31.92
50702;BME280;36670;50.094;8.496;2022-07-29T09:01:10;100145.88;;;27.53;33.71
50702;BME280;36670;50.094;8.496;2022-07-29T09:03:37;100148.91;;;28.23;34.08
50702;BME280;36670;50.094;8.496;2022-07-29T09:06:05;100146.56;;;28.52;32.67
50702;BME280;36670;50.094;8.496;2022-07-29T09:08:31;100151.47;;;28.08;32.41
50702;BME280;36670;50.094;8.496;2022-07-29T09:10:57;100147.13;;;28.38;32.27
50702;BME280;36670;50.094;8.496;2022-07-29T09:13:23;100148.44;;;28.64;32.71
50702;BME280;36670;50.094;8.496;2022-07-29T09:15:48;100139.97;;;28.44;32.48
50702;BME280;36670;50.094;8.496;2022-07-29T09:18:46;100138.72;;;29.18;32.92
50702;BME280;36670;50.094;8.496;2022-07-29T09:21:14;100123.56;;;29.98;32.85
50702;BME280;36670;50.094;8.496;2022-07-29T09:24:14;100141.50;;;30.02;30.79
50702;BME280;36670;50.094;8.496;2022-07-29T09:26:42;100142.94;;;29.28;31.76
50702;BME280;36670;50.094;8.496;2022-07-29T09:29:10;100136.16;;;29.09;32.12
50702;BME280;36670;50.094;8.496;2022-07-29T09:31:38;100132.94;;;29.38;32.22
50702;BME280;36670;50.094;8.496;2022-07-29T09:34:05;100142.91;;;29.85;31.72
50702;BME280;36670;50.094;8.496;2022-07-29T09:36:30;100136.06;;;29.59;31.33
50702;BME280;36670;50.094;8.496;2022-07-29T09:39:02;100138.06;;;28.75;32.92
50702;BME280;36670;50.094;8.496;2022-07-29T09:41:29;100133.25;;;28.56;32.52
50702;BME280;36670;50.094;8.496;2022-07-29T09:43:56;100136.16;;;28.59;32.98
50702;BME280;36670;50.094;8.496;2022-07-29T09:46:22;100125.06;;;28.74;32.86
50702;BME280;36670;50.094;8.496;2022-07-29T09:49:11;100119.34;;;29.24;32.69
50702;BME280;36670;50.094;8.496;2022-07-29T09:51:40;100121.41;;;29.57;31.83
50702;BME280;36670;50.094;8.496;2022-07-29T09:54:26;100113.13;;;29.45;31.28
50702;BME280;36670;50.094;8.496;2022-07-29T09:56:54;100114.47;;;29.55;32.09
50702;BME280;36670;50.094;8.496;2022-07-29T09:59:19;100108.75;;;29.85;32.05
50702;BME280;36670;50.094;8.496;2022-07-29T10:01:51;100124.25;;;29.57;31.32
50702;BME280;36670;50.094;8.496;2022-07-29T10:04:18;100123.22;;;29.73;31.33
50702;BME280;36670;50.094;8.496;2022-07-29T10:07:00;100127.59;;;29.33;31.87
50702;BME280;36670;50.094;8.496;2022-07-29T10:09:26;100112.59;;;29.36;31.99
50702;BME280;36670;50.094;8.496;2022-07-29T10:14:35;100119.47;;;29.65;32.50
50702;BME280;36670;50.094;8.496;2022-07-29T10:17:01;100106.16;;;30.07;32.12
50702;BME280;36670;50.094;8.496;2022-07-29T10:19:29;100105.66;;;30.39;30.78
50702;BME280;36670;50.094;8.496;2022-07-29T10:21:59;100103.38;;;30.55;30.13
50702;BME280;36670;50.094;8.496;2022-07-29T10:24:26;100106.00;;;30.82;30.14
50702;BME280;36670;50.094;8.496;2022-07-29T10:26:56;100103.88;;;30.68;30.16
50702;BME280;36670;50.094;8.496;2022-07-29T10:29:22;100102.59;;;30.17;30.28
50702;BME280;36670;50.094;8.496;2022-07-29T10:35:01;100105.41;;;31.07;29.48
50702;BME280;36670;50.094;8.496;2022-07-29T10:40:34;100108.06;;;30.37;30.37
50702;BME280;36670;50.094;8.496;2022-07-29T10:43:28;100097.19;;;30.46;30.21
50702;BME280;36670;50.094;8.496;2022-07-29T10:45:59;100102.88;;;30.05;30.61
50702;BME280;36670;50.094;8.496;2022-07-29T10:48:25;100094.88;;;30.18;31.04
50702;BME280;36670;50.094;8.496;2022-07-29T10:50:59;100100.19;;;30.23;31.20
50702;BME280;36670;50.094;8.496;2022-07-29T10:53:51;100090.91;;;30.29;30.59
50702;BME280;36670;50.094;8.496;2022-07-29T10:59:42;100086.44;;;30.77;30.66
50702;BME280;36670;50.094;8.496;2022-07-29T11:01:59;100087.41;;;30.43;30.38
50702;BME280;36670;50.094;8.496;2022-07-29T11:07:09;100088.13;;;30.37;30.53
50702;BME280;36670;50.094;8.496;2022-07-29T11:09:35;100082.81;;;30.32;31.25
50702;BME280;36670;50.094;8.496;2022-07-29T11:12:00;100079.09;;;30.76;31.25
50702;BME280;36670;50.094;8.496;2022-07-29T11:15:05;100075.78;;;30.70;30.24
50702;BME280;36670;50.094;8.496;2022-07-29T11:23:23;100073.97;;;29.69;31.77
50702;BME280;36670;50.094;8.496;2022-07-29T11:28:49;100062.94;;;30.39;32.09
50702;BME280;36670;50.094;8.496;2022-07-29T11:31:37;100068.28;;;30.44;31.41
50702;BME280;36670;50.094;8.496;2022-07-29T11:34:27;100076.25;;;30.76;31.39
50702;BME280;36670;50.094;8.496;2022-07-29T11:39:37;100077.44;;;31.38;30.64
50702;BME280;36670;50.094;8.496;2022-07-29T11:47:34;100060.50;;;31.81;30.81
50702;BME280;36670;50.094;8.496;2022-07-29T11:50:00;100071.75;;;31.38;29.59
50702;BME280;36670;50.094;8.496;2022-07-29T11:52:40;100060.19;;;31.05;30.26
50702;BME280;36670;50.094;8.496;2022-07-29T11:55:13;100060.69;;;30.62;31.01
50702;BME280;36670;50.094;8.496;2022-07-29T11:57:54;100055.44;;;30.68;31.14
50702;BME280;36670;50.094;8.496;2022-07-29T12:00:31;100047.97;;;31.12;31.25
50702;BME280;36670;50.094;8.496;2022-07-29T12:03:00;100055.38;;;31.27;30.76
50702;BME280;36670;50.094;8.496;2022-07-29T12:05:38;100041.31;;;31.71;30.52
50702;BME280;36670;50.094;8.496;2022-07-29T12:08:07;100043.75;;;31.76;30.10
50702;BME280;36670;50.094;8.496;2022-07-29T12:10:33;100037.69;;;31.85;30.25
50702;BME280;36670;50.094;8.496;2022-07-29T12:12:58;100034.84;;;31.92;29.69
50702;BME280;36670;50.094;8.496;2022-07-29T12:15:24;100036.00;;;31.69;30.05
50702;BME280;36670;50.094;8.496;2022-07-29T12:17:50;100035.19;;;31.69;30.13
50702;BME280;36670;50.094;8.496;2022-07-29T12:20:29;100031.44;;;31.43;31.46
50702;BME280;36670;50.094;8.496;2022-07-29T12:22:55;100027.88;;;31.82;30.45
50702;BME280;36670;50.094;8.496;2022-07-29T12:25:23;100038.75;;;31.44;30.37
50702;BME280;36670;50.094;8.496;2022-07-29T12:28:01;100040.41;;;30.71;30.99
50702;BME280;36670;50.094;8.496;2022-07-29T12:30:44;100027.81;;;30.24;31.40
50702;BME280;36670;50.094;8.496;2022-07-29T12:35:42;100024.50;;;30.67;31.04
50702;BME280;36670;50.094;8.496;2022-07-29T12:38:10;100020.28;;;31.09;30.82
50702;BME280;36670;50.094;8.496;2022-07-29T12:40:36;100017.59;;;31.48;30.66
50702;BME280;36670;50.094;8.496;2022-07-29T12:43:13;100007.47;;;31.65;29.60
50702;BME280;36670;50.094;8.496;2022-07-29T12:45:41;100012.38;;;31.94;29.97
50702;BME280;36670;50.094;8.496;2022-07-29T12:48:07;100010.00;;;32.32;29.60
50702;BME280;36670;50.094;8.496;2022-07-29T12:50:58;100005.91;;;32.37;28.99
50702;BME280;36670;50.094;8.496;2022-07-29T12:53:24;99999.75;;;32.34;29.36
50702;BME280;36670;50.094;8.496;2022-07-29T12:55:51;99997.72;;;32.53;28.55
50702;BME280;36670;50.094;8.496;2022-07-29T13:01:09;99987.09;;;31.71;29.39
50702;BME280;36670;50.094;8.496;2022-07-29T13:06:38;99992.41;;;31.94;29.33
50702;BME280;36670;50.094;8.496;2022-07-29T13:09:20;99991.97;;;31.77;29.26
50702;BME280;36670;50.094;8.496;2022-07-29T13:11:50;99991.16;;;31.84;29.78
50702;BME280;36670;50.094;8.496;2022-07-29T13:14:34;99990.81;;;32.14;28.81
50702;BME280;36670;50.094;8.496;2022-07-29T13:17:10;99996.88;;;31.84;28.61
50702;BME280;36670;50.094;8.496;2022-07-29T13:19:50;100007.06;;;31.71;29.51
50702;BME280;36670;50.094;8.496;2022-07-29T13:22:18;100000.16;;;31.97;28.87
50702;BME280;36670;50.094;8.496;2022-07-29T13:27:15;99992.03;;;32.31;28.97
50702;BME280;36670;50.094;8.496;2022-07-29T13:29:41;99990.78;;;32.40;28.62
50702;BME280;36670;50.094;8.496;2022-07-29T13:32:06;99985.06;;;32.11;28.44
50702;BME280;36670;50.094;8.496;2022-07-29T13:34:32;99976.50;;;31.96;28.81
50702;BME280;36670;50.094;8.496;2022-07-29T13:36:58;99979.38;;;32.07;29.07
50702;BME280;36670;50.094;8.496;2022-07-29T13:39:23;99978.53;;;31.85;28.61
50702;BME280;36670;50.094;8.496;2022-07-29T13:41:48;99981.31;;;31.56;29.13
50702;BME280;36670;50.094;8.496;2022-07-29T13:44:14;99981.63;;;31.26;29.44
50702;BME280;36670;50.094;8.496;2022-07-29T13:46:39;99990.47;;;30.99;29.50